createdAt,value
2023-07-27T00:00:42.408Z,92.06
2023-07-27T00:01:44.018Z,93.08
2023-07-27T00:02:45.769Z,91.98
2023-07-27T00:03:47.441Z,90.16
2023-07-27T00:04:49.133Z,89.43
2023-07-27T00:05:50.830Z,90.36
2023-07-27T00:06:52.425Z,89.99
2023-07-27T00:07:54.597Z,90.64
2023-07-27T00:08:58.116Z,90.17
2023-07-27T00:09:59.726Z,89.20
2023-07-27T00:11:01.290Z,92.97
2023-07-27T00:12:02.941Z,91.04
2023-07-27T00:13:04.568Z,91.32
2023-07-27T00:14:06.223Z,91.02
2023-07-27T00:15:08.258Z,91.20
2023-07-27T00:16:09.897Z,89.61
2023-07-27T00:17:11.543Z,91.48
2023-07-27T00:18:13.198Z,91.40
2023-07-27T00:19:14.809Z,89.76
2023-07-27T00:20:16.863Z,90.29
2023-07-27T00:21:18.466Z,91.91
2023-07-27T00:22:20.095Z,91.26
2023-07-27T00:23:21.780Z,92.34
2023-07-27T00:24:23.433Z,92.46
2023-07-27T00:25:25.103Z,90.69
2023-07-27T00:26:26.745Z,90.56
2023-07-27T00:27:28.406Z,90.83
2023-07-27T00:28:30.068Z,91.92
2023-07-27T00:29:31.687Z,92.73
2023-07-27T00:30:34.287Z,90.44
2023-07-27T00:31:36.040Z,91.88
2023-07-27T00:32:37.799Z,89.78
2023-07-27T00:33:39.469Z,91.52
2023-07-27T00:34:41.095Z,90.91
2023-07-27T00:35:42.699Z,89.97
2023-07-27T00:36:44.412Z,92.04
2023-07-27T00:37:46.079Z,89.56
2023-07-27T00:38:47.671Z,92.72
2023-07-27T00:39:49.322Z,90.07
2023-07-27T00:40:51.423Z,91.39
2023-07-27T00:41:53.266Z,89.37
2023-07-27T00:42:54.900Z,90.32
2023-07-27T00:43:56.553Z,90.74
2023-07-27T00:44:58.252Z,92.21
2023-07-27T00:46:00.198Z,91.89
2023-07-27T00:47:02.297Z,91.92
2023-07-27T00:48:05.918Z,90.75
2023-07-27T00:49:08.183Z,89.80
2023-07-27T00:50:10.104Z,93.32
2023-07-27T00:51:12.467Z,91.25
2023-07-27T00:52:14.262Z,90.37
2023-07-27T00:53:16.108Z,90.73
2023-07-27T00:54:17.976Z,93.64
2023-07-27T00:55:19.581Z,91.26
2023-07-27T00:56:21.664Z,91.76
2023-07-27T00:57:23.407Z,92.74
2023-07-27T00:58:25.069Z,91.27
2023-07-27T00:59:26.687Z,93.04
2023-07-27T01:00:28.911Z,91.64
2023-07-27T01:01:30.780Z,94.28
2023-07-27T01:02:32.470Z,93.89
2023-07-27T01:03:35.044Z,92.38
2023-07-27T01:04:36.836Z,92.86
2023-07-27T01:05:38.862Z,91.54
2023-07-27T01:06:40.831Z,90.15
2023-07-27T01:07:42.345Z,94.14
2023-07-27T01:08:44.642Z,91.40
2023-07-27T01:09:46.600Z,92.47
2023-07-27T01:10:50.798Z,92.63
2023-07-27T01:11:57.820Z,90.99
2023-07-27T01:13:06.353Z,90.87
2023-07-27T01:14:26.321Z,93.30
2023-07-27T01:15:31.586Z,91.01
2023-07-27T01:17:08.656Z,91.52
2023-07-27T01:18:17.144Z,93.67
2023-07-27T01:19:37.353Z,92.79
2023-07-27T01:20:47.758Z,91.94
2023-07-27T01:21:50.969Z,90.73
2023-07-27T01:23:26.673Z,92.20
2023-07-27T01:24:56.145Z,94.73
2023-07-27T01:26:19.140Z,93.65
2023-07-27T01:27:29.128Z,91.71
2023-07-27T01:29:18.812Z,93.64
2023-07-27T01:30:29.585Z,92.56
2023-07-27T01:31:42.545Z,92.30
2023-07-27T01:32:45.021Z,91.89
2023-07-27T01:33:47.867Z,91.56
2023-07-27T01:34:52.505Z,93.91
2023-07-27T01:36:07.700Z,92.69
2023-07-27T01:37:10.733Z,94.66
2023-07-27T01:38:12.568Z,94.62
2023-07-27T01:39:14.882Z,89.95
2023-07-27T01:40:16.517Z,91.36
2023-07-27T01:41:19.285Z,94.76
2023-07-27T01:42:20.797Z,93.31
2023-07-27T01:43:22.393Z,91.87
2023-07-27T01:44:25.428Z,92.66
2023-07-27T01:45:26.981Z,90.77
2023-07-27T01:46:30.570Z,92.71
2023-07-27T01:47:32.840Z,93.17
2023-07-27T01:48:35.864Z,91.50
2023-07-27T01:49:39.406Z,91.71
2023-07-27T01:50:42.017Z,89.84
2023-07-27T01:51:44.495Z,90.26
2023-07-27T01:52:46.233Z,91.99
2023-07-27T01:53:48.929Z,93.17
2023-07-27T01:54:50.522Z,90.27
2023-07-27T01:55:52.696Z,92.87
2023-07-27T01:56:56.148Z,91.93
2023-07-27T01:58:01.089Z,90.83
2023-07-27T01:59:03.060Z,90.55
2023-07-27T02:00:06.850Z,91.20
2023-07-27T02:01:15.968Z,93.89
2023-07-27T02:02:18.395Z,90.60
2023-07-27T02:03:19.923Z,93.12
2023-07-27T02:04:22.729Z,92.28
2023-07-27T02:05:25.388Z,90.32
2023-07-27T02:06:26.926Z,91.72
2023-07-27T02:07:28.656Z,92.19
2023-07-27T02:08:30.380Z,91.34
2023-07-27T02:09:32.536Z,91.14
2023-07-27T02:10:34.714Z,89.57
2023-07-27T02:11:36.895Z,92.77
2023-07-27T02:12:43.404Z,92.42
2023-07-27T02:14:09.783Z,88.48
2023-07-27T02:15:33.655Z,91.15
2023-07-27T02:16:39.220Z,91.28
2023-07-27T02:17:49.970Z,92.61
2023-07-27T02:18:52.126Z,89.06
2023-07-27T02:19:57.725Z,92.56
2023-07-27T02:20:59.582Z,92.23
2023-07-27T02:22:03.646Z,91.13
2023-07-27T02:23:07.971Z,89.61
2023-07-27T02:24:09.772Z,92.41
2023-07-27T02:25:12.130Z,89.70
2023-07-27T02:26:13.987Z,94.09
2023-07-27T02:27:15.613Z,91.29
2023-07-27T02:28:17.220Z,90.72
2023-07-27T02:29:18.847Z,92.79
2023-07-27T02:30:20.561Z,90.17
2023-07-27T02:31:22.237Z,91.33
2023-07-27T02:32:23.902Z,92.46
2023-07-27T02:33:27.058Z,93.64
2023-07-27T02:34:28.646Z,90.42
2023-07-27T02:35:30.231Z,93.34
2023-07-27T02:36:32.280Z,88.59
2023-07-27T02:37:34.098Z,90.85
2023-07-27T02:38:35.732Z,93.71
2023-07-27T02:39:37.330Z,91.74
2023-07-27T02:40:38.934Z,89.27
2023-07-27T02:41:42.287Z,93.51
2023-07-27T02:42:49.814Z,90.37
2023-07-27T02:43:51.417Z,89.88
2023-07-27T02:44:54.210Z,92.31
2023-07-27T02:46:00.609Z,91.66
2023-07-27T02:47:03.420Z,88.63
2023-07-27T02:48:06.066Z,89.75
2023-07-27T02:49:07.903Z,91.53
2023-07-27T02:50:09.659Z,92.38
2023-07-27T02:51:26.651Z,92.64
2023-07-27T02:52:32.901Z,87.52
2023-07-27T02:53:38.216Z,89.48
2023-07-27T02:54:48.476Z,90.56
2023-07-27T02:55:57.371Z,93.03
2023-07-27T02:56:59.002Z,90.06
2023-07-27T02:58:07.630Z,92.05
2023-07-27T02:59:10.986Z,88.64
2023-07-27T03:00:17.890Z,89.30
2023-07-27T03:01:22.781Z,91.20
2023-07-27T03:02:31.200Z,92.65
2023-07-27T03:03:34.482Z,89.24
2023-07-27T03:04:42.710Z,92.25
2023-07-27T03:05:46.479Z,90.39
2023-07-27T03:06:51.128Z,93.49
2023-07-27T03:07:54.991Z,92.73
2023-07-27T03:09:00.752Z,89.06
2023-07-27T03:10:02.609Z,89.93
2023-07-27T03:11:05.628Z,90.34
2023-07-27T03:12:07.836Z,92.34
2023-07-27T03:13:09.473Z,90.73
2023-07-27T03:14:11.229Z,91.34
2023-07-27T03:15:12.944Z,89.04
2023-07-27T03:16:14.623Z,92.54
2023-07-27T03:17:16.252Z,91.76
2023-07-27T03:18:18.746Z,93.13
2023-07-27T03:19:20.250Z,91.14
2023-07-27T03:20:21.865Z,90.92
2023-07-27T03:21:23.571Z,90.41
2023-07-27T03:22:25.148Z,88.72
2023-07-27T03:23:27.369Z,90.20
2023-07-27T03:24:29.107Z,92.97
2023-07-27T03:25:34.011Z,92.21
2023-07-27T03:26:37.870Z,90.95
2023-07-27T03:27:39.713Z,90.68
2023-07-27T03:28:44.392Z,90.23
2023-07-27T03:29:48.150Z,89.30
2023-07-27T03:30:49.743Z,89.14
2023-07-27T03:31:51.470Z,90.17
2023-07-27T03:32:53.085Z,89.58
2023-07-27T03:33:54.757Z,89.48
2023-07-27T03:34:56.426Z,92.37
2023-07-27T03:35:57.992Z,91.00
2023-07-27T03:36:59.583Z,90.60
2023-07-27T03:38:01.499Z,92.93
2023-07-27T03:39:03.164Z,89.01
2023-07-27T03:40:05.377Z,89.92
2023-07-27T03:41:07.097Z,92.11
2023-07-27T03:42:09.972Z,88.81
2023-07-27T03:43:11.805Z,90.48
2023-07-27T03:44:15.212Z,88.81
2023-07-27T03:45:17.464Z,90.53
2023-07-27T03:46:19.853Z,89.65
2023-07-27T03:47:21.518Z,93.90
2023-07-27T03:48:23.133Z,91.67
2023-07-27T03:49:24.762Z,88.78
2023-07-27T03:50:26.710Z,88.69
2023-07-27T03:51:28.360Z,89.93
2023-07-27T03:52:30.001Z,90.77
2023-07-27T03:53:32.198Z,89.67
2023-07-27T03:54:33.961Z,92.89
2023-07-27T03:55:35.657Z,88.82
2023-07-27T03:56:37.340Z,88.28
2023-07-27T03:57:39.052Z,88.61
2023-07-27T03:58:40.965Z,88.43
2023-07-27T03:59:42.628Z,88.47
2023-07-27T04:00:44.275Z,92.70
2023-07-27T04:01:46.041Z,88.53
2023-07-27T04:02:47.802Z,89.84
2023-07-27T04:03:49.476Z,91.53
2023-07-27T04:04:51.244Z,87.96
2023-07-27T04:05:53.205Z,90.55
2023-07-27T04:06:54.927Z,86.96
2023-07-27T04:07:56.722Z,86.17
2023-07-27T04:08:58.377Z,90.68
2023-07-27T04:10:00.029Z,86.23
2023-07-27T04:11:01.714Z,89.40
2023-07-27T04:12:03.468Z,90.82
2023-07-27T04:13:05.192Z,92.25
2023-07-27T04:14:06.770Z,90.43
2023-07-27T04:15:09.077Z,87.49
2023-07-27T04:16:10.764Z,90.26
2023-07-27T04:17:12.370Z,89.26
2023-07-27T04:18:14.126Z,91.97
2023-07-27T04:19:16.030Z,91.05
2023-07-27T04:20:17.655Z,86.60
2023-07-27T04:21:19.265Z,90.52
2023-07-27T04:22:20.900Z,90.49
2023-07-27T04:23:22.547Z,87.97
2023-07-27T04:24:24.228Z,89.70
2023-07-27T04:25:25.861Z,87.31
2023-07-27T04:26:27.544Z,87.01
2023-07-27T04:27:29.393Z,86.87
2023-07-27T04:28:31.024Z,89.16
2023-07-27T04:29:32.635Z,89.56
2023-07-27T04:30:34.313Z,87.01
2023-07-27T04:31:35.930Z,87.20
2023-07-27T04:32:37.914Z,87.51
2023-07-27T04:33:39.669Z,83.38
2023-07-27T04:34:41.297Z,83.92
2023-07-27T04:35:42.910Z,87.75
2023-07-27T04:36:44.548Z,84.64
2023-07-27T04:37:46.177Z,86.31
2023-07-27T04:38:47.923Z,83.93
2023-07-27T04:39:49.665Z,82.04
2023-07-27T04:40:52.439Z,83.58
2023-07-27T04:41:54.234Z,84.72
2023-07-27T04:42:55.858Z,84.27
2023-07-27T04:43:59.000Z,86.93
2023-07-27T04:45:01.282Z,85.19
2023-07-27T04:46:03.174Z,83.33
2023-07-27T04:47:05.144Z,82.24
2023-07-27T04:48:08.168Z,84.74
2023-07-27T04:49:09.950Z,81.57
2023-07-27T04:50:11.953Z,82.17
2023-07-27T04:51:13.664Z,80.57
2023-07-27T04:52:15.413Z,80.26
2023-07-27T04:53:17.112Z,77.03
2023-07-27T04:54:18.819Z,78.53
2023-07-27T04:55:20.533Z,73.07
2023-07-27T04:56:22.175Z,70.75
2023-07-27T04:57:23.794Z,65.79
2023-07-27T04:58:25.427Z,67.26
2023-07-27T04:59:27.166Z,65.67
2023-07-27T05:00:28.842Z,64.31
2023-07-27T05:01:30.563Z,67.57
2023-07-27T05:02:32.283Z,67.75
2023-07-27T05:03:34.147Z,66.96
2023-07-27T05:04:35.988Z,70.06
2023-07-27T05:05:44.601Z,71.30
2023-07-27T05:06:46.206Z,75.16
2023-07-27T05:07:47.824Z,76.10
2023-07-27T05:08:49.444Z,74.31
2023-07-27T05:09:51.081Z,73.55
2023-07-27T05:10:52.779Z,75.73
2023-07-27T05:11:54.541Z,77.39
2023-07-27T05:12:56.211Z,75.71
2023-07-27T05:13:57.808Z,79.17
2023-07-27T05:15:00.412Z,78.07
2023-07-27T05:16:04.217Z,78.06
2023-07-27T05:17:06.064Z,78.32
2023-07-27T05:18:07.753Z,78.62
2023-07-27T05:19:09.328Z,81.75
2023-07-27T05:20:11.505Z,78.12
2023-07-27T05:21:14.614Z,77.52
2023-07-27T05:22:16.496Z,78.11
2023-07-27T05:23:18.197Z,79.22
2023-07-27T05:24:20.690Z,79.84
2023-07-27T05:25:22.343Z,80.21
2023-07-27T05:26:23.990Z,81.48
2023-07-27T05:27:25.687Z,77.91
2023-07-27T05:28:27.756Z,78.85
2023-07-27T05:29:29.423Z,79.69
2023-07-27T05:30:31.030Z,80.11
2023-07-27T05:31:32.665Z,78.49
2023-07-27T05:32:34.405Z,77.83
2023-07-27T05:33:36.074Z,79.50
2023-07-27T05:34:37.768Z,79.11
2023-07-27T05:35:39.426Z,79.10
2023-07-27T05:36:41.100Z,77.53
2023-07-27T05:37:47.531Z,79.19
2023-07-27T05:38:49.220Z,79.55
2023-07-27T05:39:50.949Z,77.64
2023-07-27T05:40:52.554Z,78.86
2023-07-27T05:41:54.214Z,80.37
2023-07-27T05:42:55.847Z,77.34
2023-07-27T05:43:57.443Z,77.62
2023-07-27T05:44:59.063Z,77.06
2023-07-27T05:46:00.803Z,77.08
2023-07-27T05:47:04.212Z,80.54
2023-07-27T05:48:06.645Z,76.39
2023-07-27T05:49:11.547Z,79.34
2023-07-27T05:50:13.652Z,78.13
2023-07-27T05:51:15.280Z,77.82
2023-07-27T05:52:16.924Z,77.86
2023-07-27T05:53:18.544Z,76.65
2023-07-27T05:54:20.191Z,78.10
2023-07-27T05:55:21.848Z,76.33
2023-07-27T05:56:23.508Z,77.05
2023-07-27T05:57:25.357Z,75.51
2023-07-27T05:58:26.964Z,76.98
2023-07-27T05:59:28.548Z,78.10
2023-07-27T06:00:30.250Z,77.05
2023-07-27T06:01:32.186Z,72.65
2023-07-27T06:02:34.319Z,76.18
2023-07-27T06:03:36.092Z,72.67
2023-07-27T06:04:37.726Z,73.92
2023-07-27T06:05:45.522Z,72.69
2023-07-27T06:06:48.705Z,73.46
2023-07-27T06:07:50.292Z,73.70
2023-07-27T06:08:51.882Z,73.30
2023-07-27T06:09:53.600Z,73.84
2023-07-27T06:11:10.367Z,72.80
2023-07-27T06:12:14.747Z,72.09
2023-07-27T06:13:16.615Z,71.61
2023-07-27T06:14:18.848Z,71.39
2023-07-27T06:15:20.448Z,70.26
2023-07-27T06:16:23.121Z,68.63
2023-07-27T06:17:25.141Z,66.37
2023-07-27T06:18:27.114Z,66.10
2023-07-27T06:19:28.730Z,66.99
2023-07-27T06:20:30.530Z,66.57
2023-07-27T06:21:33.765Z,68.40
2023-07-27T06:22:35.345Z,68.36
2023-07-27T06:23:36.930Z,67.04
2023-07-27T06:24:38.755Z,68.47
2023-07-27T06:25:44.098Z,65.83
2023-07-27T06:26:45.778Z,67.41
2023-07-27T06:27:47.498Z,66.73
2023-07-27T06:28:49.193Z,66.26
2023-07-27T06:29:50.852Z,67.50
2023-07-27T06:30:52.566Z,66.13
2023-07-27T06:31:54.214Z,64.96
2023-07-27T06:32:55.940Z,64.87
2023-07-27T06:33:57.552Z,65.38
2023-07-27T06:34:59.210Z,63.64
2023-07-27T06:36:00.810Z,63.29
2023-07-27T06:37:02.863Z,61.84
2023-07-27T06:38:04.481Z,61.83
2023-07-27T06:39:06.400Z,58.99
2023-07-27T06:40:08.661Z,59.11
2023-07-27T06:41:10.553Z,56.81
2023-07-27T06:42:12.175Z,57.88
2023-07-27T06:43:13.788Z,55.74
2023-07-27T06:44:15.415Z,58.11
2023-07-27T06:45:17.065Z,57.18
2023-07-27T06:46:19.675Z,57.58
2023-07-27T06:47:21.361Z,56.52
2023-07-27T06:48:23.126Z,57.87
2023-07-27T06:49:24.952Z,56.72
2023-07-27T06:50:26.632Z,55.79
2023-07-27T06:51:28.339Z,56.51
2023-07-27T06:52:30.005Z,57.93
2023-07-27T06:53:31.612Z,59.23
2023-07-27T06:54:33.312Z,57.86
2023-07-27T06:55:35.069Z,59.22
2023-07-27T06:56:36.866Z,59.74
2023-07-27T06:57:38.652Z,61.47
2023-07-27T06:58:40.301Z,61.74
2023-07-27T06:59:41.947Z,61.69
2023-07-27T07:00:44.153Z,61.35
2023-07-27T07:01:45.836Z,61.91
2023-07-27T07:02:47.465Z,60.34
2023-07-27T07:03:49.184Z,59.36
2023-07-27T07:04:50.837Z,59.09
2023-07-27T07:05:55.163Z,59.16
2023-07-27T07:06:56.932Z,57.29
2023-07-27T07:07:58.774Z,56.00
2023-07-27T07:09:00.638Z,58.07
2023-07-27T07:10:02.306Z,55.68
2023-07-27T07:11:04.178Z,57.55
2023-07-27T07:12:06.783Z,56.33
2023-07-27T07:13:08.395Z,55.68
2023-07-27T07:14:10.010Z,56.26
2023-07-27T07:15:11.990Z,55.21
2023-07-27T07:16:13.682Z,55.50
2023-07-27T07:17:15.455Z,55.22
2023-07-27T07:18:17.162Z,54.98
2023-07-27T07:19:18.754Z,55.81
2023-07-27T07:20:20.523Z,56.00
2023-07-27T07:21:22.180Z,55.90
2023-07-27T07:22:23.789Z,58.57
2023-07-27T07:23:25.456Z,58.60
2023-07-27T07:24:27.116Z,58.09
2023-07-27T07:25:28.731Z,57.75
2023-07-27T07:26:30.847Z,57.88
2023-07-27T07:27:32.608Z,57.47
2023-07-27T07:28:34.267Z,58.87
2023-07-27T07:29:35.899Z,56.86
2023-07-27T07:30:39.806Z,57.35
2023-07-27T07:31:41.521Z,58.13
2023-07-27T07:32:43.162Z,57.08
2023-07-27T07:33:44.809Z,56.62
2023-07-27T07:34:46.417Z,54.95
2023-07-27T07:35:48.039Z,53.33
2023-07-27T07:36:49.750Z,52.30
2023-07-27T07:37:51.555Z,51.85
2023-07-27T07:38:53.349Z,51.02
2023-07-27T07:39:54.953Z,50.48
2023-07-27T07:40:56.545Z,50.85
2023-07-27T07:41:58.944Z,50.55
2023-07-27T07:43:00.645Z,49.74
2023-07-27T07:44:02.337Z,50.63
2023-07-27T07:45:04.524Z,49.22
2023-07-27T07:46:11.422Z,48.98
2023-07-27T07:47:13.605Z,48.23
2023-07-27T07:48:15.248Z,47.31
2023-07-27T07:49:16.977Z,46.75
2023-07-27T07:50:18.594Z,47.07
2023-07-27T07:51:21.373Z,48.89
2023-07-27T07:52:23.345Z,48.33
2023-07-27T07:53:34.897Z,47.24
2023-07-27T07:54:37.442Z,47.20
2023-07-27T07:55:39.455Z,48.82
2023-07-27T07:56:41.110Z,46.34
2023-07-27T07:57:42.778Z,47.49
2023-07-27T07:58:48.045Z,48.43
2023-07-27T07:59:49.745Z,48.85
2023-07-27T08:00:51.700Z,48.30
2023-07-27T08:01:54.630Z,50.23
2023-07-27T08:02:56.532Z,51.32
2023-07-27T08:03:58.270Z,49.33
2023-07-27T08:05:00.948Z,49.42
2023-07-27T08:06:02.851Z,49.53
2023-07-27T08:07:04.856Z,49.98
2023-07-27T08:08:06.488Z,50.78
2023-07-27T08:09:08.199Z,51.28
2023-07-27T08:10:10.826Z,50.62
2023-07-27T08:11:13.641Z,51.44
2023-07-27T08:12:15.425Z,52.09
2023-07-27T08:13:17.143Z,49.34
2023-07-27T08:14:19.092Z,51.80
2023-07-27T08:15:20.836Z,51.56
2023-07-27T08:16:22.670Z,51.59
2023-07-27T08:17:24.303Z,52.20
2023-07-27T08:18:26.251Z,48.91
2023-07-27T08:19:27.889Z,50.29
2023-07-27T08:20:29.543Z,51.17
2023-07-27T08:21:32.191Z,49.27
2023-07-27T08:22:34.017Z,50.56
2023-07-27T08:23:35.756Z,51.07
2023-07-27T08:24:37.385Z,49.86
2023-07-27T08:25:39.427Z,49.43
2023-07-27T08:26:41.171Z,49.20
2023-07-27T08:27:42.853Z,47.65
2023-07-27T08:28:44.481Z,48.04
2023-07-27T08:29:46.215Z,50.04
2023-07-27T08:30:48.562Z,51.48
2023-07-27T08:31:50.183Z,50.11
2023-07-27T08:32:53.330Z,49.94
2023-07-27T08:33:55.472Z,49.59
2023-07-27T08:34:57.036Z,51.63
2023-07-27T08:36:01.516Z,50.88
2023-07-27T08:37:04.277Z,50.77
2023-07-27T08:38:06.002Z,53.56
2023-07-27T08:39:07.973Z,55.01
2023-07-27T08:40:10.361Z,51.18
2023-07-27T08:41:12.228Z,51.44
2023-07-27T08:42:16.069Z,51.55
2023-07-27T08:43:17.776Z,54.08
2023-07-27T08:44:19.589Z,52.05
2023-07-27T08:45:22.492Z,50.18
2023-07-27T08:46:24.250Z,49.69
2023-07-27T08:47:26.978Z,50.63
2023-07-27T08:48:29.151Z,50.66
2023-07-27T08:49:31.873Z,51.90
2023-07-27T08:50:34.851Z,51.03
2023-07-27T08:51:38.790Z,53.71
2023-07-27T08:52:40.815Z,51.65
2023-07-27T08:53:42.511Z,50.00
2023-07-27T08:54:44.159Z,50.48
2023-07-27T08:55:46.371Z,53.39
2023-07-27T08:56:47.973Z,51.14
2023-07-27T08:57:49.578Z,51.10
2023-07-27T08:58:51.944Z,51.34
2023-07-27T08:59:53.663Z,52.63
2023-07-27T09:00:55.295Z,52.35
2023-07-27T09:01:57.010Z,52.38
2023-07-27T09:03:00.072Z,52.67
2023-07-27T09:04:02.031Z,53.68
2023-07-27T09:05:03.986Z,55.07
2023-07-27T09:06:06.221Z,54.29
2023-07-27T09:07:08.074Z,55.86
2023-07-27T09:08:11.694Z,55.34
2023-07-27T09:09:18.384Z,54.44
2023-07-27T09:10:20.020Z,55.71
2023-07-27T09:11:22.946Z,55.08
2023-07-27T09:12:25.496Z,55.87
2023-07-27T09:13:32.022Z,54.31
2023-07-27T09:14:40.185Z,53.38
2023-07-27T09:15:44.818Z,53.11
2023-07-27T09:16:47.637Z,54.23
2023-07-27T09:17:49.723Z,53.65
2023-07-27T09:18:51.480Z,54.62
2023-07-27T09:19:53.174Z,54.99
2023-07-27T09:20:56.328Z,55.06
2023-07-27T09:21:58.668Z,54.19
2023-07-27T09:23:00.193Z,53.53
2023-07-27T09:24:01.788Z,53.93
2023-07-27T09:25:03.472Z,53.13
2023-07-27T09:26:06.834Z,50.19
2023-07-27T09:27:14.418Z,51.25
2023-07-27T09:28:24.160Z,50.26
2023-07-27T09:29:25.834Z,50.44
2023-07-27T09:30:27.446Z,50.98
2023-07-27T09:31:33.731Z,49.61
2023-07-27T09:32:36.763Z,49.24
2023-07-27T09:33:38.405Z,49.56
2023-07-27T09:34:40.050Z,49.43
2023-07-27T09:35:42.122Z,49.68
2023-07-27T09:36:44.081Z,50.03
2023-07-27T09:37:47.334Z,49.83
2023-07-27T09:38:49.309Z,48.89
2023-07-27T09:39:52.805Z,49.36
2023-07-27T09:40:54.752Z,49.31
2023-07-27T09:41:56.450Z,49.41
2023-07-27T09:42:58.043Z,48.37
2023-07-27T09:43:59.824Z,51.30
2023-07-27T09:45:01.407Z,49.21
2023-07-27T09:46:03.168Z,51.17
2023-07-27T09:47:05.088Z,49.25
2023-07-27T09:48:07.442Z,49.05
2023-07-27T09:49:09.019Z,47.31
2023-07-27T09:50:11.212Z,46.56
2023-07-27T09:51:13.023Z,46.94
2023-07-27T09:52:14.776Z,48.11
2023-07-27T09:53:17.413Z,47.53
2023-07-27T09:54:19.346Z,49.62
2023-07-27T09:55:21.205Z,45.16
2023-07-27T09:56:23.751Z,46.00
2023-07-27T09:57:26.118Z,46.71
2023-07-27T09:58:29.214Z,47.65
2023-07-27T09:59:30.867Z,49.08
2023-07-27T10:00:32.870Z,47.51
2023-07-27T10:01:35.061Z,48.27
2023-07-27T10:02:36.703Z,45.19
2023-07-27T10:03:38.479Z,45.58
2023-07-27T10:04:42.212Z,47.40
2023-07-27T10:05:44.244Z,47.17
2023-07-27T10:06:46.203Z,45.94
2023-07-27T10:07:54.400Z,45.84
2023-07-27T10:08:57.223Z,44.20
2023-07-27T10:10:28.008Z,45.57
2023-07-27T10:11:32.157Z,46.25
2023-07-27T10:12:34.704Z,46.17
2023-07-27T10:13:47.318Z,45.30
2023-07-27T10:14:48.968Z,46.03
2023-07-27T10:15:53.727Z,46.13
2023-07-27T10:17:03.960Z,45.32
2023-07-27T10:18:05.670Z,45.13
2023-07-27T10:19:07.337Z,46.14
2023-07-27T10:20:21.938Z,45.77
2023-07-27T10:21:28.649Z,46.18
2023-07-27T10:22:34.627Z,45.30
2023-07-27T10:23:37.230Z,45.40
2023-07-27T10:25:00.063Z,47.19
2023-07-27T10:26:02.767Z,46.33
2023-07-27T10:27:07.809Z,44.92
2023-07-27T10:28:11.066Z,46.66
2023-07-27T10:29:18.254Z,45.72
2023-07-27T10:30:20.099Z,44.29
2023-07-27T10:31:26.709Z,45.52
2023-07-27T10:32:30.254Z,46.58
2023-07-27T10:33:31.857Z,45.43
2023-07-27T10:34:40.692Z,46.16
2023-07-27T10:36:09.824Z,46.79
2023-07-27T10:37:13.705Z,45.02
2023-07-27T10:38:15.334Z,45.55
2023-07-27T10:39:24.222Z,44.98
2023-07-27T10:40:26.951Z,45.37
2023-07-27T10:41:29.545Z,44.66
2023-07-27T10:42:34.888Z,43.35
2023-07-27T10:43:37.001Z,44.30
2023-07-27T10:44:44.781Z,42.93
2023-07-27T10:45:55.359Z,41.41
2023-07-27T10:46:58.994Z,40.64
2023-07-27T10:48:00.594Z,41.74
2023-07-27T10:49:28.083Z,43.00
2023-07-27T10:50:30.398Z,40.58
2023-07-27T10:51:32.006Z,40.10
2023-07-27T10:52:35.578Z,40.96
2023-07-27T10:53:37.197Z,40.84
2023-07-27T10:54:40.783Z,42.01
2023-07-27T10:55:43.154Z,41.95
2023-07-27T10:56:45.436Z,41.74
2023-07-27T10:57:47.422Z,41.89
2023-07-27T10:58:50.208Z,41.66
2023-07-27T10:59:52.855Z,42.84
2023-07-27T11:00:55.233Z,42.70
2023-07-27T11:01:57.259Z,42.98
2023-07-27T11:02:59.107Z,44.40
2023-07-27T11:04:00.766Z,44.44
2023-07-27T11:05:05.688Z,44.74
2023-07-27T11:06:11.251Z,44.95
2023-07-27T11:07:13.089Z,46.42
2023-07-27T11:08:14.742Z,45.66
2023-07-27T11:09:17.636Z,46.12
2023-07-27T11:10:30.176Z,45.45
2023-07-27T11:11:31.809Z,47.41
2023-07-27T11:12:35.750Z,47.16
2023-07-27T11:13:37.304Z,46.95
2023-07-27T11:14:38.897Z,46.76
2023-07-27T11:15:40.558Z,47.76
2023-07-27T11:16:42.304Z,46.86
2023-07-27T11:17:44.053Z,47.48
2023-07-27T11:18:45.921Z,48.30
2023-07-27T11:19:48.194Z,47.11
2023-07-27T11:20:49.700Z,48.93
2023-07-27T11:21:52.055Z,47.47
2023-07-27T11:22:54.165Z,47.17
2023-07-27T11:23:55.740Z,48.31
2023-07-27T11:24:57.557Z,47.36
2023-07-27T11:25:59.291Z,47.38
2023-07-27T11:27:00.991Z,47.52
2023-07-27T11:28:04.979Z,49.44
2023-07-27T11:29:07.979Z,48.95
2023-07-27T11:30:13.414Z,51.04
2023-07-27T11:31:18.289Z,47.82
2023-07-27T11:32:25.723Z,48.67
2023-07-27T11:33:34.056Z,48.27
2023-07-27T11:34:35.936Z,49.36
2023-07-27T11:35:47.654Z,49.00
2023-07-27T11:36:51.828Z,49.37
2023-07-27T11:37:53.508Z,48.43
2023-07-27T11:38:55.582Z,48.93
2023-07-27T11:39:57.704Z,47.33
2023-07-27T11:41:22.564Z,48.55
2023-07-27T11:42:31.324Z,47.90
2023-07-27T11:43:33.013Z,47.94
2023-07-27T11:44:35.140Z,49.09
2023-07-27T11:45:39.648Z,47.63
2023-07-27T11:46:43.219Z,46.80
2023-07-27T11:47:45.331Z,47.60
2023-07-27T11:49:00.844Z,48.69
2023-07-27T11:50:12.709Z,48.34
2023-07-27T11:51:15.170Z,48.22
2023-07-27T11:52:18.487Z,48.21
2023-07-27T11:54:31.803Z,47.75
2023-07-27T11:55:36.138Z,46.81
2023-07-27T11:56:38.680Z,47.55
2023-07-27T11:57:40.333Z,46.18
2023-07-27T11:58:43.304Z,45.80
2023-07-27T12:00:11.554Z,47.98
2023-07-27T12:01:16.959Z,47.66
2023-07-27T12:02:18.897Z,47.92
2023-07-27T12:03:24.074Z,48.01
2023-07-27T12:04:27.036Z,47.61
2023-07-27T12:05:28.775Z,48.88
2023-07-27T12:06:32.310Z,47.03
2023-07-27T12:09:46.648Z,46.88
2023-07-27T12:12:02.083Z,47.36
2023-07-27T12:14:11.013Z,48.64
2023-07-27T12:15:26.331Z,48.84
2023-07-27T12:17:02.099Z,47.46
2023-07-27T12:17:54.551Z,47.87
2023-07-27T12:18:56.135Z,45.00
2023-07-27T12:21:28.925Z,45.66
2023-07-27T12:23:30.261Z,45.18
2023-07-27T12:24:32.109Z,46.58
2023-07-27T12:27:43.652Z,45.98
2023-07-27T12:28:45.307Z,46.34
2023-07-27T12:29:46.964Z,46.03
2023-07-27T12:31:15.249Z,45.90
2023-07-27T12:32:12.557Z,45.88
2023-07-27T12:33:14.539Z,46.88
2023-07-27T12:34:18.598Z,45.26
2023-07-27T12:36:25.548Z,46.16
2023-07-27T12:39:37.434Z,45.84
2023-07-27T12:42:23.427Z,48.30
2023-07-27T12:43:05.647Z,46.30
2023-07-27T12:44:07.634Z,45.45
2023-07-27T12:45:09.743Z,46.24
2023-07-27T12:46:12.359Z,47.58
2023-07-27T12:47:14.121Z,46.62
2023-07-27T12:48:15.687Z,48.02
2023-07-27T12:49:17.266Z,46.98
2023-07-27T12:50:18.936Z,45.64
2023-07-27T12:51:20.649Z,47.67
2023-07-27T12:52:22.304Z,48.50
2023-07-27T12:53:23.912Z,46.39
2023-07-27T12:54:25.490Z,47.77
2023-07-27T12:55:27.117Z,45.92
2023-07-27T12:56:29.059Z,47.66
2023-07-27T12:57:30.648Z,46.25
2023-07-27T12:58:32.234Z,47.66
2023-07-27T12:59:34.138Z,46.91
2023-07-27T13:00:36.050Z,46.84
2023-07-27T13:01:37.808Z,46.48
2023-07-27T13:02:39.793Z,46.77
2023-07-27T13:03:41.685Z,47.14
2023-07-27T13:04:43.575Z,47.92
2023-07-27T13:05:45.265Z,47.38
2023-07-27T13:06:46.909Z,47.13
2023-07-27T13:07:48.776Z,47.46
2023-07-27T13:08:50.393Z,49.22
2023-07-27T13:09:52.059Z,47.62
2023-07-27T13:10:53.662Z,48.68
2023-07-27T13:11:55.298Z,49.84
2023-07-27T13:12:56.910Z,48.49
2023-07-27T13:13:58.517Z,49.35
2023-07-27T13:15:03.219Z,49.34
2023-07-27T13:16:04.886Z,49.73
2023-07-27T13:17:06.702Z,49.33
2023-07-27T13:18:08.390Z,48.20
2023-07-27T13:19:10.051Z,48.98
2023-07-27T13:20:11.760Z,49.04
2023-07-27T13:21:13.334Z,48.18
2023-07-27T13:22:15.509Z,48.79
2023-07-27T13:23:17.116Z,48.39
2023-07-27T13:24:18.746Z,48.79
2023-07-27T13:25:20.381Z,50.07
2023-07-27T13:26:22.037Z,47.79
2023-07-27T13:27:24.132Z,48.38
2023-07-27T13:28:25.905Z,48.25
2023-07-27T13:29:31.539Z,49.81
2023-07-27T13:30:34.602Z,49.48
2023-07-27T13:31:36.635Z,48.97
2023-07-27T13:32:38.348Z,49.98
2023-07-27T13:33:40.023Z,50.77
2023-07-27T13:34:41.761Z,50.55
2023-07-27T13:35:43.376Z,49.96
2023-07-27T13:36:44.973Z,51.71
2023-07-27T13:37:46.601Z,50.53
2023-07-27T13:38:48.209Z,50.77
2023-07-27T13:39:49.876Z,51.47
2023-07-27T13:40:51.476Z,51.58
2023-07-27T13:41:53.150Z,51.70
2023-07-27T13:42:54.764Z,50.96
2023-07-27T13:43:56.374Z,50.86
2023-07-27T13:44:57.989Z,52.79
2023-07-27T13:45:59.961Z,52.29
2023-07-27T13:47:01.612Z,51.98
2023-07-27T13:48:09.686Z,51.62
2023-07-27T13:49:12.095Z,51.65